createdAt,value
2018-08-23T00:01:27.065Z,100863.56
2018-08-23T00:03:58.441Z,100860.76
2018-08-23T00:06:26.754Z,100862.09
2018-08-23T00:08:57.432Z,100862.05
2018-08-23T00:11:27.529Z,100863.48
2018-08-23T00:13:55.893Z,100864.25
2018-08-23T00:16:33.075Z,100863.53
2018-08-23T00:19:02.399Z,100865.20
2018-08-23T00:21:30.661Z,100864.83
2018-08-23T00:24:07.138Z,100866.50
2018-08-23T00:26:36.146Z,100862.09
2018-08-23T00:29:06.104Z,100861.20
2018-08-23T00:31:38.918Z,100856.27
2018-08-23T00:34:07.554Z,100854.63
2018-08-23T00:36:36.694Z,100844.53
2018-08-23T00:39:06.603Z,100846.31
2018-08-23T00:41:34.849Z,100847.21
2018-08-23T00:44:03.113Z,100846.27
2018-08-23T00:46:31.405Z,100840.65
2018-08-23T00:48:59.674Z,100837.88
2018-08-23T00:51:27.981Z,100841.75
2018-08-23T00:54:01.495Z,100849.37
2018-08-23T00:56:29.717Z,100847.97
2018-08-23T00:59:00.602Z,100840.50
2018-08-23T01:01:29.041Z,100834.77
2018-08-23T01:03:57.341Z,100835.58
2018-08-23T01:06:37.028Z,100838.55
2018-08-23T01:09:07.280Z,100838.78
2018-08-23T01:11:35.740Z,100832.12
2018-08-23T01:14:04.040Z,100832.86
2018-08-23T01:16:32.291Z,100830.26
2018-08-23T01:19:05.834Z,100832.27
2018-08-23T01:21:40.350Z,100827.06
2018-08-23T01:24:08.613Z,100827.61
2018-08-23T01:26:36.860Z,100822.14
2018-08-23T01:29:15.080Z,100816.34
2018-08-23T01:31:43.340Z,100822.78
2018-08-23T01:34:11.681Z,100821.44
2018-08-23T01:36:39.945Z,100815.11
2018-08-23T01:39:10.681Z,100813.63
2018-08-23T01:41:38.982Z,100813.88
2018-08-23T01:44:07.301Z,100809.59
2018-08-23T01:46:40.881Z,100806.48
2018-08-23T01:49:09.146Z,100808.67
2018-08-23T01:51:37.441Z,100801.72
2018-08-23T01:54:05.720Z,100798.25
2018-08-23T01:56:33.975Z,100798.77
2018-08-23T01:59:02.256Z,100801.90
2018-08-23T02:01:30.509Z,100800.75
2018-08-23T02:03:58.753Z,100802.42
2018-08-23T02:06:32.431Z,100798.14
2018-08-23T02:09:00.682Z,100793.06
2018-08-23T02:11:28.981Z,100795.09
2018-08-23T02:13:57.266Z,100787.36
2018-08-23T02:16:25.566Z,100788.73
2018-08-23T02:18:53.817Z,100787.88
2018-08-23T02:21:22.117Z,100789.96
2018-08-23T02:23:52.420Z,100785.58
2018-08-23T02:26:20.696Z,100784.13
2018-08-23T02:28:50.604Z,100784.61
2018-08-23T02:31:18.884Z,100780.27
2018-08-23T02:33:47.208Z,100782.42
2018-08-23T02:36:16.451Z,100779.11
2018-08-23T02:38:45.961Z,100777.36
2018-08-23T02:41:14.426Z,100772.56
2018-08-23T02:43:43.000Z,100772.59
2018-08-23T02:46:11.260Z,100779.69
2018-08-23T02:48:39.511Z,100772.74
2018-08-23T02:51:07.819Z,100760.59
2018-08-23T02:53:37.979Z,100763.05
2018-08-23T02:56:09.966Z,100762.16
2018-08-23T02:58:57.448Z,100776.17
2018-08-23T03:01:27.298Z,100771.00
2018-08-23T03:04:06.836Z,100764.80
2018-08-23T03:06:55.523Z,100759.09
2018-08-23T03:09:39.900Z,100759.59
2018-08-23T03:12:22.825Z,100761.69
2018-08-23T03:14:51.069Z,100754.11
2018-08-23T03:17:22.862Z,100752.44
2018-08-23T03:20:11.962Z,100758.59
2018-08-23T03:22:40.654Z,100760.44
2018-08-23T03:25:10.361Z,100758.14
2018-08-23T03:27:38.627Z,100753.67
2018-08-23T03:30:08.979Z,100755.37
2018-08-23T03:32:37.273Z,100752.95
2018-08-23T03:35:05.661Z,100753.59
2018-08-23T03:37:33.948Z,100749.92
2018-08-23T03:40:02.204Z,100748.33
2018-08-23T03:42:30.514Z,100754.32
2018-08-23T03:44:59.488Z,100746.81
2018-08-23T03:47:30.996Z,100752.30
2018-08-23T03:50:00.756Z,100748.17
2018-08-23T03:52:34.335Z,100750.05
2018-08-23T03:55:02.560Z,100752.26
2018-08-23T03:57:36.188Z,100753.53
2018-08-23T04:00:04.427Z,100746.08
2018-08-23T04:02:32.717Z,100748.23
2018-08-23T04:05:19.496Z,100748.62
2018-08-23T04:07:47.831Z,100741.73
2018-08-23T04:10:16.060Z,100751.69
2018-08-23T04:12:44.908Z,100737.55
2018-08-23T04:15:25.429Z,100743.70
2018-08-23T04:17:53.666Z,100737.62
2018-08-23T04:20:21.904Z,100736.70
2018-08-23T04:22:50.276Z,100735.39
2018-08-23T04:25:18.493Z,100733.72
2018-08-23T04:27:46.776Z,100730.73
2018-08-23T04:30:15.562Z,100729.47
2018-08-23T04:32:49.513Z,100731.34
2018-08-23T04:35:23.261Z,100731.05
2018-08-23T04:37:52.163Z,100726.20
2018-08-23T04:40:20.400Z,100734.44
2018-08-23T04:42:48.661Z,100739.25
2018-08-23T04:45:22.177Z,100742.71
2018-08-23T04:47:55.632Z,100744.39
2018-08-23T04:50:25.188Z,100738.25
2018-08-23T04:52:53.423Z,100739.48
2018-08-23T04:55:21.721Z,100732.45
2018-08-23T04:57:49.946Z,100731.18
2018-08-23T05:00:18.215Z,100728.87
2018-08-23T05:02:48.685Z,100727.51
2018-08-23T05:05:16.960Z,100727.95
2018-08-23T05:07:45.225Z,100727.95
2018-08-23T05:10:13.699Z,100729.47
2018-08-23T05:12:42.116Z,100730.03
2018-08-23T05:15:10.390Z,100725.97
2018-08-23T05:17:38.660Z,100725.91
2018-08-23T05:20:07.094Z,100720.77
2018-08-23T05:22:35.317Z,100730.34
2018-08-23T05:25:12.620Z,100728.23
2018-08-23T05:27:57.699Z,100730.89
2018-08-23T05:30:26.997Z,100727.84
2018-08-23T05:32:59.400Z,100726.42
2018-08-23T05:35:28.213Z,100723.75
2018-08-23T05:37:56.449Z,100722.80
2018-08-23T05:40:24.708Z,100720.61
2018-08-23T05:42:56.643Z,100717.33
2018-08-23T05:45:35.886Z,100722.77
2018-08-23T05:48:15.513Z,100722.63
2018-08-23T05:50:43.964Z,100718.04
2018-08-23T05:53:13.357Z,100722.28
2018-08-23T05:55:41.614Z,100723.03
2018-08-23T05:58:15.836Z,100723.42
2018-08-23T06:00:44.212Z,100722.47
2018-08-23T06:03:13.370Z,100716.78
2018-08-23T06:05:41.654Z,100713.92
2018-08-23T06:08:10.235Z,100715.23
2018-08-23T06:10:38.512Z,100716.88
2018-08-23T06:13:06.771Z,100706.02
2018-08-23T06:15:39.210Z,100703.82
2018-08-23T06:18:07.829Z,100707.23
2018-08-23T06:20:36.076Z,100712.77
2018-08-23T06:23:04.301Z,100714.67
2018-08-23T06:25:32.558Z,100712.81
2018-08-23T06:28:00.797Z,100719.27
2018-08-23T06:30:29.044Z,100714.52
2018-08-23T06:33:03.605Z,100707.67
2018-08-23T06:35:36.052Z,100707.03
2018-08-23T06:38:04.396Z,100711.39
2018-08-23T06:40:32.672Z,100712.24
2018-08-23T06:43:05.944Z,100712.20
2018-08-23T06:45:34.258Z,100714.16
2018-08-23T06:48:03.396Z,100709.22
2018-08-23T06:50:31.685Z,100706.42
2018-08-23T06:52:59.900Z,100709.83
2018-08-23T06:55:35.543Z,100711.59
2018-08-23T06:58:04.831Z,100710.16
2018-08-23T07:00:33.533Z,100709.00
2018-08-23T07:03:04.193Z,100713.44
2018-08-23T07:05:32.574Z,100710.77
2018-08-23T07:08:00.822Z,100710.50
2018-08-23T07:10:29.156Z,100708.41
2018-08-23T07:12:57.780Z,100701.02
2018-08-23T07:15:26.158Z,100706.44
2018-08-23T07:17:54.497Z,100705.98
2018-08-23T07:20:22.797Z,100705.59
2018-08-23T07:22:51.122Z,100703.42
2018-08-23T07:25:19.975Z,100703.06
2018-08-23T07:27:48.288Z,100704.56
2018-08-23T07:30:20.308Z,100700.55
2018-08-23T07:32:49.871Z,100712.33
2018-08-23T07:35:19.402Z,100704.83
2018-08-23T07:37:49.287Z,100707.50
2018-08-23T07:40:18.496Z,100704.03
2018-08-23T07:42:48.121Z,100698.63
2018-08-23T07:45:16.987Z,100684.11
2018-08-23T07:47:46.584Z,100703.97
2018-08-23T07:50:14.985Z,100703.46
2018-08-23T07:52:44.659Z,100700.56
2018-08-23T07:55:13.205Z,100699.65
2018-08-23T07:57:41.918Z,100700.84
2018-08-23T08:00:38.224Z,100704.98
2018-08-23T08:03:06.630Z,100701.80
2018-08-23T08:05:38.273Z,100707.34
2018-08-23T08:08:08.122Z,100702.94
2018-08-23T08:10:42.876Z,100704.12
2018-08-23T08:13:11.981Z,100688.42
2018-08-23T08:15:40.256Z,100705.16
2018-08-23T08:18:12.741Z,100706.66
2018-08-23T08:20:41.435Z,100705.75
2018-08-23T08:23:09.757Z,100704.65
2018-08-23T08:25:38.008Z,100700.36
2018-08-23T08:28:10.700Z,100698.33
2018-08-23T08:30:44.302Z,100706.53
2018-08-23T08:33:26.900Z,100694.59
2018-08-23T08:35:59.834Z,100703.98
2018-08-23T08:38:28.142Z,100694.75
2018-08-23T08:40:56.424Z,100694.92
2018-08-23T08:43:25.368Z,100697.36
2018-08-23T08:45:55.653Z,100691.34
2018-08-23T08:48:29.997Z,100691.73
2018-08-23T08:51:14.901Z,100699.59
2018-08-23T08:53:43.756Z,100690.64
2018-08-23T08:56:12.012Z,100682.78
2018-08-23T08:58:41.626Z,100681.55
2018-08-23T09:01:09.872Z,100673.44
2018-08-23T09:03:38.928Z,100675.62
2018-08-23T09:06:08.588Z,100669.33
2018-08-23T09:08:38.110Z,100671.33
2018-08-23T09:11:06.633Z,100663.36
2018-08-23T09:13:40.234Z,100673.03
2018-08-23T09:16:10.797Z,100657.05
2018-08-23T09:18:42.315Z,100651.34
2018-08-23T09:21:11.386Z,100654.40
2018-08-23T09:23:39.818Z,100645.49
2018-08-23T09:26:08.143Z,100640.17
2018-08-23T09:28:36.437Z,100639.33
2018-08-23T09:31:04.710Z,100638.47
2018-08-23T09:33:33.016Z,100638.22
2018-08-23T09:36:01.312Z,100634.38
2018-08-23T09:38:29.613Z,100632.07
2018-08-23T09:40:57.882Z,100628.73
2018-08-23T09:43:26.162Z,100625.50
2018-08-23T09:45:54.425Z,100626.88
2018-08-23T09:48:22.778Z,100626.81
2018-08-23T09:50:51.205Z,100611.34
2018-08-23T09:53:25.398Z,100615.28
2018-08-23T09:55:55.199Z,100613.94
2018-08-23T09:58:28.682Z,100608.10
2018-08-23T10:01:02.270Z,100601.75
2018-08-23T10:03:36.088Z,100599.93
2018-08-23T10:06:09.585Z,100609.05
2018-08-23T10:08:43.152Z,100606.23
2018-08-23T10:11:20.999Z,100607.81
2018-08-23T10:13:54.466Z,100599.24
2018-08-23T10:16:27.919Z,100592.14
2018-08-23T10:18:58.214Z,100585.84
2018-08-23T10:21:31.855Z,100586.28
2018-08-23T10:24:12.785Z,100592.30
2018-08-23T10:26:41.149Z,100586.60
2018-08-23T10:29:10.290Z,100587.56
2018-08-23T10:31:38.576Z,100578.09
2018-08-23T10:34:07.632Z,100581.28
2018-08-23T10:36:36.085Z,100576.86
2018-08-23T10:39:08.213Z,100580.69
2018-08-23T10:41:36.585Z,100569.71
2018-08-23T10:44:05.058Z,100578.75
2018-08-23T10:46:38.749Z,100572.56
2018-08-23T10:49:07.248Z,100573.14
2018-08-23T10:51:35.793Z,100576.25
2018-08-23T10:54:04.269Z,100566.52
2018-08-23T10:56:32.913Z,100570.42
2018-08-23T10:59:01.349Z,100565.05
2018-08-23T11:01:30.103Z,100566.67
2018-08-23T11:04:04.028Z,100564.73
2018-08-23T11:06:32.451Z,100568.26
2018-08-23T11:09:06.069Z,100554.66
2018-08-23T11:11:36.130Z,100562.46
2018-08-23T11:14:10.500Z,100555.16
2018-08-23T11:16:44.811Z,100563.66
2018-08-23T11:19:18.427Z,100560.61
2018-08-23T11:21:46.893Z,100553.34
2018-08-23T11:24:15.425Z,100551.61
2018-08-23T11:26:43.969Z,100550.13
2018-08-23T11:29:12.257Z,100550.59
2018-08-23T11:31:40.565Z,100550.23
2018-08-23T11:34:08.866Z,100552.51
2018-08-23T11:36:37.268Z,100553.98
2018-08-23T11:39:08.262Z,100549.84
2018-08-23T11:41:36.985Z,100547.25
2018-08-23T11:44:05.717Z,100548.37
2018-08-23T11:46:34.390Z,100534.68
2018-08-23T11:49:02.795Z,100535.83
2018-08-23T11:51:31.260Z,100536.28
2018-08-23T11:53:59.731Z,100542.05
2018-08-23T11:56:28.296Z,100537.48
2018-08-23T11:58:56.732Z,100541.64
2018-08-23T12:01:25.018Z,100535.05
2018-08-23T12:03:53.282Z,100527.74
2018-08-23T12:06:21.597Z,100532.42
2018-08-23T12:08:50.016Z,100535.98
2018-08-23T12:11:18.560Z,100521.38
2018-08-23T12:13:50.179Z,100526.09
2018-08-23T12:16:18.696Z,100520.75
2018-08-23T12:18:46.996Z,100528.97
2018-08-23T12:21:15.507Z,100524.83
2018-08-23T12:23:43.812Z,100517.63
2018-08-23T12:26:12.769Z,100509.13
2018-08-23T12:28:46.370Z,100518.59
2018-08-23T12:31:14.961Z,100507.27
2018-08-23T12:33:43.449Z,100508.11
2018-08-23T12:36:12.702Z,100506.53
2018-08-23T12:38:46.494Z,100507.65
2018-08-23T12:41:20.372Z,100507.30
2018-08-23T12:43:50.214Z,100502.77
2018-08-23T12:46:18.626Z,100502.93
2018-08-23T12:48:47.974Z,100503.89
2018-08-23T12:51:16.385Z,100497.83
2018-08-23T12:53:44.665Z,100499.82
2018-08-23T12:56:13.469Z,100494.97
2018-08-23T12:58:41.977Z,100482.39
2018-08-23T13:01:10.520Z,100483.31
2018-08-23T13:03:38.854Z,100482.77
2018-08-23T13:06:07.615Z,100477.61
2018-08-23T13:08:36.380Z,100466.53
2018-08-23T13:11:04.986Z,100466.30
2018-08-23T13:13:33.313Z,100467.16
2018-08-23T13:16:01.655Z,100463.10
2018-08-23T13:18:29.998Z,100461.48
2018-08-23T13:20:58.534Z,100456.92
2018-08-23T13:23:26.827Z,100458.70
2018-08-23T13:25:55.770Z,100452.17
2018-08-23T13:28:24.895Z,100455.88
2018-08-23T13:30:53.526Z,100454.94
2018-08-23T13:33:22.284Z,100445.27
2018-08-23T13:35:50.586Z,100446.52
2018-08-23T13:38:19.364Z,100447.91
2018-08-23T13:40:48.521Z,100435.58
2018-08-23T13:43:17.164Z,100434.64
2018-08-23T13:45:45.803Z,100438.31
2018-08-23T13:48:14.379Z,100429.75
2018-08-23T13:50:42.913Z,100437.18
2018-08-23T13:53:11.193Z,100429.02
2018-08-23T13:55:39.705Z,100425.46
2018-08-23T13:58:08.245Z,100426.38
2018-08-23T14:00:40.640Z,100428.67
2018-08-23T14:03:09.881Z,100420.31
2018-08-23T14:05:39.972Z,100423.47
2018-08-23T14:08:08.951Z,100418.03
2018-08-23T14:10:37.515Z,100420.96
2018-08-23T14:13:06.304Z,100416.23
2018-08-23T14:15:40.235Z,100417.18
2018-08-23T14:18:08.796Z,100411.56
2018-08-23T14:20:37.348Z,100401.99
2018-08-23T14:23:06.545Z,100398.04
2018-08-23T14:25:35.217Z,100404.02
2018-08-23T14:28:03.890Z,100403.88
2018-08-23T14:30:32.376Z,100400.36
2018-08-23T14:33:01.054Z,100388.11
2018-08-23T14:35:29.281Z,100386.66
2018-08-23T14:37:57.609Z,100387.27
2018-08-23T14:40:25.856Z,100383.35
2018-08-23T14:42:55.065Z,100388.50
2018-08-23T14:45:28.581Z,100382.89
2018-08-23T14:48:02.309Z,100383.71
2018-08-23T14:50:31.622Z,100363.99
2018-08-23T14:52:59.917Z,100380.66
2018-08-23T14:55:33.786Z,100381.75
2018-08-23T14:58:02.036Z,100374.98
2018-08-23T15:00:30.509Z,100377.31
2018-08-23T15:02:58.788Z,100376.84
2018-08-23T15:05:27.024Z,100372.17
2018-08-23T15:07:55.289Z,100374.81
2018-08-23T15:10:23.535Z,100373.69
2018-08-23T15:12:51.805Z,100368.12
2018-08-23T15:15:24.196Z,100367.47
2018-08-23T15:17:52.568Z,100364.41
2018-08-23T15:20:20.821Z,100353.45
2018-08-23T15:22:49.065Z,100355.56
2018-08-23T15:25:17.281Z,100356.18
2018-08-23T15:27:45.517Z,100349.22
2018-08-23T15:30:13.782Z,100354.47
2018-08-23T15:32:42.009Z,100348.00
2018-08-23T15:35:10.273Z,100350.13
2018-08-23T15:37:38.516Z,100350.92
2018-08-23T15:40:06.764Z,100345.97
2018-08-23T15:42:34.995Z,100345.53
2018-08-23T15:45:03.351Z,100350.56
2018-08-23T15:47:31.544Z,100349.40
2018-08-23T15:49:59.856Z,100343.75
2018-08-23T15:52:30.224Z,100337.33
2018-08-23T15:54:58.480Z,100341.10
2018-08-23T15:57:26.728Z,100341.55
2018-08-23T15:59:54.968Z,100346.92
2018-08-23T16:02:23.184Z,100340.22
2018-08-23T16:04:51.432Z,100338.42
2018-08-23T16:07:19.718Z,100344.40
2018-08-23T16:09:47.966Z,100339.33
2018-08-23T16:12:16.212Z,100329.36
2018-08-23T16:14:44.513Z,100330.75
2018-08-23T16:17:17.972Z,100332.41
2018-08-23T16:19:51.536Z,100328.89
2018-08-23T16:22:19.815Z,100327.52
2018-08-23T16:24:48.137Z,100320.81
2018-08-23T16:27:16.316Z,100315.77
2018-08-23T16:29:50.442Z,100317.92
2018-08-23T16:32:24.181Z,100321.45
2018-08-23T16:34:52.536Z,100321.61
2018-08-23T16:37:20.742Z,100312.99
2018-08-23T16:39:48.978Z,100312.77
2018-08-23T16:42:17.209Z,100316.04
2018-08-23T16:44:45.457Z,100311.52
2018-08-23T16:47:13.745Z,100306.98
2018-08-23T16:49:42.072Z,100308.43
2018-08-23T16:52:10.408Z,100303.92
2018-08-23T16:54:38.724Z,100301.66
2018-08-23T16:57:07.044Z,100298.66
2018-08-23T16:59:35.341Z,100290.79
2018-08-23T17:02:03.733Z,100293.82
2018-08-23T17:04:37.396Z,100295.15
2018-08-23T17:07:05.752Z,100299.70
2018-08-23T17:09:34.051Z,100301.58
2018-08-23T17:12:02.369Z,100297.84
2018-08-23T17:14:30.651Z,100288.17
2018-08-23T17:17:04.219Z,100290.98
2018-08-23T17:19:32.541Z,100299.33
2018-08-23T17:22:00.840Z,100289.67
2018-08-23T17:24:29.193Z,100286.10
2018-08-23T17:26:57.484Z,100281.78
2018-08-23T17:29:25.717Z,100279.00
2018-08-23T17:31:53.924Z,100282.48
2018-08-23T17:34:22.275Z,100277.89
2018-08-23T17:36:50.508Z,100277.12
2018-08-23T17:39:18.754Z,100282.84
2018-08-23T17:41:46.992Z,100278.83
2018-08-23T17:44:15.276Z,100284.51
2018-08-23T17:46:43.522Z,100276.41
2018-08-23T17:49:11.894Z,100275.17
2018-08-23T17:51:40.812Z,100275.27
2018-08-23T17:54:09.069Z,100273.39
2018-08-23T17:56:37.288Z,100273.39
2018-08-23T17:59:05.633Z,100274.48
2018-08-23T18:01:33.865Z,100273.10
2018-08-23T18:04:02.364Z,100271.31
2018-08-23T18:06:30.623Z,100273.86
2018-08-23T18:08:58.953Z,100273.39
2018-08-23T18:11:27.821Z,100271.53
2018-08-23T18:13:56.085Z,100272.09
2018-08-23T18:16:30.041Z,100273.78
2018-08-23T18:18:58.309Z,100276.79
2018-08-23T18:21:26.545Z,100276.80
2018-08-23T18:23:54.832Z,100271.55
2018-08-23T18:26:23.902Z,100283.05
2018-08-23T18:28:52.313Z,100280.55
2018-08-23T18:31:21.057Z,100281.27
2018-08-23T18:33:49.451Z,100280.81
2018-08-23T18:36:17.996Z,100284.41
2018-08-23T18:38:46.781Z,100276.88
2018-08-23T18:41:15.113Z,100286.45
2018-08-23T18:43:43.422Z,100286.09
2018-08-23T18:46:11.853Z,100286.19
2018-08-23T18:48:40.100Z,100283.84
2018-08-23T18:51:08.408Z,100289.48
2018-08-23T18:53:36.727Z,100295.66
2018-08-23T18:56:05.204Z,100306.92
2018-08-23T18:58:33.599Z,100313.17
2018-08-23T19:01:02.098Z,100313.16
2018-08-23T19:03:30.618Z,100302.07
2018-08-23T19:05:58.884Z,100316.23
2018-08-23T19:08:27.807Z,100318.47
2018-08-23T19:10:56.080Z,100325.20
2018-08-23T19:13:24.457Z,100327.63
2018-08-23T19:15:58.323Z,100331.38
2018-08-23T19:18:26.565Z,100331.54
2018-08-23T19:20:54.924Z,100334.74
2018-08-23T19:23:23.299Z,100334.24
2018-08-23T19:25:51.657Z,100336.59
2018-08-23T19:28:20.489Z,100334.59
2018-08-23T19:30:48.820Z,100332.43
2018-08-23T19:33:17.413Z,100334.31
2018-08-23T19:35:46.587Z,100335.98
2018-08-23T19:38:15.928Z,100334.36
2018-08-23T19:40:44.493Z,100337.14
2018-08-23T19:43:14.140Z,100336.17
2018-08-23T19:45:47.841Z,100333.23
2018-08-23T19:48:16.768Z,100339.47
2018-08-23T19:50:45.097Z,100337.50
2018-08-23T19:53:14.680Z,100336.91
2018-08-23T19:55:43.076Z,100339.72
2018-08-23T19:58:12.289Z,100342.88
2018-08-23T20:00:40.743Z,100346.61
2018-08-23T20:03:09.017Z,100352.72
2018-08-23T20:05:37.910Z,100350.61
2018-08-23T20:08:06.359Z,100349.14
2018-08-23T20:10:34.634Z,100348.08
2018-08-23T20:13:02.964Z,100346.78
2018-08-23T20:15:31.698Z,100341.58
2018-08-23T20:18:00.153Z,100337.83
2018-08-23T20:20:28.804Z,100337.70
2018-08-23T20:22:57.236Z,100337.70
2018-08-23T20:25:26.868Z,100344.20
2018-08-23T20:27:55.453Z,100343.00
2018-08-23T20:30:23.766Z,100345.83
2018-08-23T20:32:52.149Z,100344.20
2018-08-23T20:35:20.432Z,100344.53
2018-08-23T20:37:48.745Z,100345.16
2018-08-23T20:40:16.997Z,100344.83
2018-08-23T20:42:46.273Z,100346.77
2018-08-23T20:45:14.668Z,100348.38
2018-08-23T20:47:43.171Z,100344.69
2018-08-23T20:50:11.935Z,100344.45
2018-08-23T20:52:40.433Z,100341.25
2018-08-23T20:55:08.965Z,100336.88
2018-08-23T20:57:37.409Z,100328.64
2018-08-23T21:00:06.890Z,100327.17
2018-08-23T21:02:35.157Z,100327.86
2018-08-23T21:05:03.693Z,100337.47
2018-08-23T21:07:32.010Z,100339.30
2018-08-23T21:10:00.393Z,100338.67
2018-08-23T21:12:28.581Z,100345.38
2018-08-23T21:14:57.172Z,100340.98
2018-08-23T21:17:25.481Z,100339.91
2018-08-23T21:19:54.037Z,100336.83
2018-08-23T21:22:22.492Z,100336.41
2018-08-23T21:24:50.772Z,100343.65
2018-08-23T21:27:19.318Z,100350.59
2018-08-23T21:29:48.014Z,100343.05
2018-08-23T21:32:16.293Z,100345.62
2018-08-23T21:34:44.549Z,100348.55
2018-08-23T21:37:12.830Z,100348.55
2018-08-23T21:39:41.105Z,100343.56
2018-08-23T21:42:09.423Z,100338.73
2018-08-23T21:44:37.700Z,100333.97
2018-08-23T21:47:07.105Z,100343.13
2018-08-23T21:49:35.429Z,100342.86
2018-08-23T21:52:03.706Z,100335.30
2018-08-23T21:54:31.998Z,100339.95
2018-08-23T21:57:00.269Z,100340.00
2018-08-23T21:59:28.537Z,100331.66
2018-08-23T22:02:01.995Z,100328.26
2018-08-23T22:04:30.270Z,100324.86
2018-08-23T22:06:58.537Z,100318.73
2018-08-23T22:09:26.810Z,100321.22
2018-08-23T22:11:55.062Z,100327.10
2018-08-23T22:14:23.326Z,100322.11
2018-08-23T22:16:51.579Z,100332.61
2018-08-23T22:19:34.035Z,100327.91
2018-08-23T22:22:02.277Z,100320.55
2018-08-23T22:24:30.534Z,100319.98
2018-08-23T22:26:58.859Z,100315.98
2018-08-23T22:29:27.041Z,100317.95
2018-08-23T22:31:55.276Z,100321.26
2018-08-23T22:34:23.517Z,100323.16
2018-08-23T22:36:51.804Z,100312.73
2018-08-23T22:39:20.066Z,100311.82
2018-08-23T22:41:48.320Z,100309.32
2018-08-23T22:44:16.724Z,100312.78
2018-08-23T22:46:45.709Z,100313.69
2018-08-23T22:49:13.952Z,100317.55
2018-08-23T22:51:42.221Z,100318.80
2018-08-23T22:54:10.508Z,100315.03
2018-08-23T22:56:38.781Z,100308.77
2018-08-23T22:59:07.053Z,100306.33
2018-08-23T23:01:35.288Z,100307.34
2018-08-23T23:04:08.933Z,100308.97
2018-08-23T23:06:37.226Z,100316.25
2018-08-23T23:09:09.850Z,100309.07
2018-08-23T23:11:38.284Z,100296.98
2018-08-23T23:14:06.651Z,100301.05
2018-08-23T23:16:34.934Z,100298.17
2018-08-23T23:19:04.485Z,100302.27
2018-08-23T23:21:32.815Z,100296.26
2018-08-23T23:24:01.559Z,100288.71
2018-08-23T23:26:29.951Z,100287.41
2018-08-23T23:28:58.281Z,100290.52
2018-08-23T23:31:26.535Z,100288.84
2018-08-23T23:33:54.825Z,100285.52
2018-08-23T23:36:23.093Z,100286.59
2018-08-23T23:38:51.385Z,100286.50
2018-08-23T23:41:19.641Z,100285.69
2018-08-23T23:43:47.937Z,100280.84
2018-08-23T23:46:16.205Z,100279.48
2018-08-23T23:48:44.523Z,100268.97
2018-08-23T23:51:12.803Z,100272.88
2018-08-23T23:53:41.111Z,100269.97
2018-08-23T23:56:09.363Z,100269.12
2018-08-23T23:58:37.670Z,100264.45
